createdAt,value
2018-12-04T00:00:13.254Z,22.5
2018-12-04T00:01:04.597Z,22.5
2018-12-04T00:01:53.827Z,22.5
2018-12-04T00:02:42.510Z,22.5
2018-12-04T00:03:32.912Z,22.4
2018-12-04T00:04:22.975Z,22.4
2018-12-04T00:05:13.763Z,22.4
2018-12-04T00:06:04.197Z,22.4
2018-12-04T00:06:54.532Z,22.4
2018-12-04T00:25:08.180Z,22.2
2018-12-04T00:25:59.021Z,22.2
2018-12-04T00:26:48.815Z,22.1
2018-12-04T00:27:38.631Z,22.2
2018-12-04T00:28:27.844Z,22.1
2018-12-04T00:29:17.923Z,22.1
2018-12-04T00:30:09.000Z,22.1
2018-12-04T00:30:58.512Z,22.1
2018-12-04T00:31:48.637Z,22.1
2018-12-04T00:32:38.140Z,22.1
2018-12-04T00:33:28.715Z,22.1
2018-12-04T00:34:18.810Z,22.1
2018-12-04T00:35:08.990Z,22.1
2018-12-04T00:35:59.119Z,22.1
2018-12-04T00:36:49.463Z,22
2018-12-04T00:37:38.960Z,22.1
2018-12-04T00:38:29.599Z,22.1
2018-12-04T00:39:19.638Z,22
2018-12-04T00:40:08.947Z,22
2018-12-04T00:40:59.851Z,22
2018-12-04T00:41:48.997Z,22
2018-12-04T00:42:39.849Z,22
2018-12-04T00:43:29.362Z,22
2018-12-04T00:44:20.232Z,21.9
2018-12-04T00:45:10.154Z,21.9
2018-12-04T00:46:00.037Z,21.9
2018-12-04T00:46:49.383Z,21.9
2018-12-04T00:47:38.556Z,21.9
2018-12-04T00:48:29.988Z,21.9
2018-12-04T00:49:20.586Z,21.9
2018-12-04T00:50:09.304Z,21.9
2018-12-04T00:51:00.172Z,21.9
2018-12-04T00:51:50.796Z,21.9
2018-12-04T00:52:40.280Z,21.9
2018-12-04T00:53:30.145Z,21.9
2018-12-04T00:54:20.216Z,21.9
2018-12-04T00:55:10.453Z,21.9
2018-12-04T00:55:59.738Z,21.9
2018-12-04T00:56:50.317Z,21.9
2018-12-04T00:57:41.174Z,21.9
2018-12-04T00:58:30.460Z,21.8
2018-12-04T00:59:20.785Z,21.8
2018-12-04T01:00:11.428Z,21.8
2018-12-04T01:01:01.640Z,21.8
2018-12-04T01:01:49.518Z,21.8
2018-12-04T01:02:41.502Z,21.8
2018-12-04T01:03:30.706Z,21.8
2018-12-04T01:04:21.622Z,21.8
2018-12-04T01:05:10.545Z,21.8
2018-12-04T01:06:00.989Z,21.8
2018-12-04T01:06:50.946Z,21.8
2018-12-04T01:07:41.286Z,21.8
2018-12-04T01:08:30.507Z,21.8
2018-12-04T01:09:21.199Z,21.8
2018-12-04T01:10:11.473Z,21.8
2018-12-04T01:11:02.080Z,21.8
2018-12-04T01:11:51.010Z,21.7
2018-12-04T01:12:41.624Z,21.7
2018-12-04T01:13:30.887Z,21.7
2018-12-04T01:14:21.527Z,21.7
2018-12-04T01:15:11.775Z,21.7
2018-12-04T01:16:01.894Z,21.7
2018-12-04T01:16:51.430Z,21.7
2018-12-04T01:17:41.772Z,21.7
2018-12-04T01:18:31.245Z,21.7
2018-12-04T01:19:22.108Z,21.7
2018-12-04T01:20:12.210Z,21.7
2018-12-04T01:21:02.332Z,21.6
2018-12-04T01:21:52.619Z,21.7
2018-12-04T01:22:42.149Z,21.6
2018-12-04T01:23:32.414Z,21.6
2018-12-04T01:24:22.191Z,21.6
2018-12-04T01:25:11.998Z,21.6
2018-12-04T01:26:03.366Z,21.6
2018-12-04T01:26:52.342Z,21.6
2018-12-04T01:27:42.169Z,21.6
2018-12-04T01:28:32.461Z,21.6
2018-12-04T01:29:22.516Z,21.6
2018-12-04T01:30:13.624Z,21.6
2018-12-04T01:31:02.455Z,21.6
2018-12-04T01:31:53.001Z,21.6
2018-12-04T01:32:42.521Z,21.6
2018-12-04T01:33:32.531Z,21.6
2018-12-04T01:34:22.573Z,21.6
2018-12-04T01:35:12.635Z,21.6
2018-12-04T01:36:03.468Z,21.6
2018-12-04T01:36:54.283Z,21.6
2018-12-04T01:37:43.913Z,21.6
2018-12-04T01:38:32.591Z,21.6
2018-12-04T01:39:23.474Z,21.5
2018-12-04T01:40:13.241Z,21.5
2018-12-04T01:41:02.828Z,21.6
2018-12-04T01:41:53.701Z,21.5
2018-12-04T01:42:43.758Z,21.5
2018-12-04T01:43:32.168Z,21.5
2018-12-04T01:44:22.578Z,21.5
2018-12-04T01:45:13.468Z,21.4
2018-12-04T01:46:02.593Z,21.5
2018-12-04T01:46:52.950Z,21.5
2018-12-04T01:47:44.405Z,21.5
2018-12-04T01:48:33.904Z,21.4
2018-12-04T01:49:23.670Z,21.4
2018-12-04T01:50:13.460Z,21.4
2018-12-04T01:51:02.130Z,21.4
2018-12-04T01:51:54.322Z,21.4
2018-12-04T01:52:43.858Z,21.4
2018-12-04T01:53:34.243Z,21.4
2018-12-04T01:54:23.445Z,21.4
2018-12-04T01:55:14.370Z,21.4
2018-12-04T01:56:04.317Z,21.4
2018-12-04T01:56:54.955Z,21.4
2018-12-04T01:57:43.135Z,21.4
2018-12-04T01:58:34.562Z,21.4
2018-12-04T01:59:24.546Z,21.4
2018-12-04T02:00:14.209Z,21.4
2018-12-04T02:01:03.638Z,21.4
2018-12-04T02:01:54.523Z,21.4
2018-12-04T02:02:45.412Z,21.4
2018-12-04T02:03:35.418Z,21.4
2018-12-04T02:04:24.638Z,21.4
2018-12-04T02:05:14.990Z,21.4
2018-12-04T02:06:04.462Z,21.4
2018-12-04T02:06:55.671Z,21.3
2018-12-04T02:07:45.996Z,21.4
2018-12-04T02:08:34.636Z,21.3
2018-12-04T02:09:25.770Z,21.4
2018-12-04T02:10:14.766Z,21.3
2018-12-04T02:11:05.696Z,21.3
2018-12-04T02:11:55.179Z,21.3
2018-12-04T02:12:45.963Z,21.3
2018-12-04T02:13:35.493Z,21.3
2018-12-04T02:14:25.593Z,21.3
2018-12-04T02:15:15.360Z,21.3
2018-12-04T02:16:06.283Z,21.3
2018-12-04T02:16:55.228Z,21.3
2018-12-04T02:17:45.856Z,21.3
2018-12-04T02:18:36.126Z,21.3
2018-12-04T02:19:25.638Z,21.3
2018-12-04T02:20:15.730Z,21.3
2018-12-04T02:21:07.528Z,21.3
2018-12-04T02:21:55.838Z,21.3
2018-12-04T02:22:46.685Z,21.3
2018-12-04T02:23:36.775Z,21.3
2018-12-04T02:24:26.635Z,21.3
2018-12-04T02:25:16.920Z,21.3
2018-12-04T02:26:06.390Z,21.3
2018-12-04T02:26:56.437Z,21.3
2018-12-04T02:27:46.545Z,21.3
2018-12-04T02:28:35.702Z,21.2
2018-12-04T02:29:26.621Z,21.3
2018-12-04T02:30:16.864Z,21.3
2018-12-04T02:31:06.498Z,21.3
2018-12-04T02:31:56.597Z,21.3
2018-12-04T02:32:47.305Z,21.2
2018-12-04T02:33:36.739Z,21.2
2018-12-04T02:34:26.530Z,21.3
2018-12-04T02:35:15.782Z,21.2
2018-12-04T02:36:06.080Z,21.2
2018-12-04T02:36:57.302Z,21.2
2018-12-04T02:37:47.302Z,21.2
2018-12-04T02:38:36.851Z,21.2
2018-12-04T02:39:27.436Z,21.2
2018-12-04T02:40:16.646Z,21.2
2018-12-04T02:41:07.511Z,21.2
2018-12-04T02:42:47.359Z,21.2
2018-12-04T02:43:37.336Z,21.2
2018-12-04T02:44:27.769Z,21.2
2018-12-04T02:45:17.723Z,21.2
2018-12-04T02:46:08.067Z,21.2
2018-12-04T02:59:28.512Z,21.1
2018-12-04T03:00:18.494Z,21.1
2018-12-04T03:01:08.853Z,21.1
2018-12-04T03:01:58.700Z,21.1
2018-12-04T03:02:48.358Z,21.1
2018-12-04T03:03:39.075Z,21.1
2018-12-04T03:04:29.890Z,21.1
2018-12-04T03:05:19.660Z,21.1
2018-12-04T03:06:09.214Z,21.1
2018-12-04T03:06:59.035Z,21.1
2018-12-04T03:07:49.840Z,21.1
2018-12-04T03:08:39.386Z,21.1
2018-12-04T03:09:29.096Z,21.1
2018-12-04T03:10:19.565Z,21.1
2018-12-04T03:11:08.718Z,21.1
2018-12-04T03:11:59.315Z,21
2018-12-04T03:12:50.190Z,21
2018-12-04T03:13:40.440Z,21
2018-12-04T03:14:30.016Z,21
2018-12-04T03:15:19.251Z,21
2018-12-04T03:16:09.313Z,21
2018-12-04T03:16:59.377Z,21
2018-12-04T03:17:49.990Z,21
2018-12-04T03:18:40.550Z,21
2018-12-04T03:19:30.767Z,21
2018-12-04T03:20:19.899Z,21
2018-12-04T03:21:09.632Z,21
2018-12-04T03:21:59.707Z,21
2018-12-04T03:22:50.310Z,21
2018-12-04T03:23:39.602Z,21
2018-12-04T03:24:31.449Z,21
2018-12-04T03:25:20.205Z,21
2018-12-04T03:26:10.480Z,20.9
2018-12-04T03:27:01.146Z,20.9
2018-12-04T03:27:50.936Z,20.9
2018-12-04T03:28:40.515Z,20.9
2018-12-04T03:29:31.093Z,20.9
2018-12-04T03:30:21.545Z,20.9
2018-12-04T03:31:11.624Z,20.9
2018-12-04T03:32:00.923Z,20.9
2018-12-04T03:32:50.947Z,20.9
2018-12-04T03:33:41.501Z,20.9
2018-12-04T03:34:31.159Z,20.9
2018-12-04T03:35:20.947Z,20.9
2018-12-04T03:36:11.411Z,20.9
2018-12-04T03:37:00.474Z,20.9
2018-12-04T03:37:51.060Z,20.9
2018-12-04T03:38:41.167Z,20.9
2018-12-04T03:39:32.094Z,20.9
2018-12-04T03:40:22.325Z,20.9
2018-12-04T03:41:11.347Z,20.9
2018-12-04T03:42:01.906Z,20.9
2018-12-04T03:42:51.378Z,20.9
2018-12-04T03:43:42.006Z,20.9
2018-12-04T03:44:32.695Z,20.9
2018-12-04T03:45:21.869Z,20.9
2018-12-04T03:46:11.682Z,20.9
2018-12-04T03:47:02.044Z,20.9
2018-12-04T03:47:52.007Z,20.9
2018-12-04T03:48:41.616Z,20.9
2018-12-04T03:49:32.428Z,20.9
2018-12-04T03:50:21.893Z,20.9
2018-12-04T03:51:11.938Z,20.9
2018-12-04T03:52:03.088Z,20.9
2018-12-04T03:52:52.718Z,20.9
2018-12-04T03:53:42.436Z,20.9
2018-12-04T03:54:32.463Z,20.9
2018-12-04T03:55:23.140Z,20.9
2018-12-04T03:56:12.614Z,20.9
2018-12-04T03:57:03.258Z,20.8
2018-12-04T03:57:52.719Z,20.8
2018-12-04T03:58:42.515Z,20.9
2018-12-04T03:59:33.216Z,20.8
2018-12-04T04:00:21.740Z,20.9
2018-12-04T04:01:13.033Z,20.8
2018-12-04T04:02:02.183Z,20.8
2018-12-04T04:02:53.909Z,20.8
2018-12-04T04:03:43.127Z,20.8
2018-12-04T04:04:32.878Z,20.8
2018-12-04T04:05:22.816Z,20.8
2018-12-04T04:06:13.292Z,20.8
2018-12-04T04:07:02.605Z,20.8
2018-12-04T04:07:53.145Z,20.8
2018-12-04T04:08:42.183Z,20.8
2018-12-04T04:09:33.505Z,20.8
2018-12-04T04:10:25.132Z,20.8
2018-12-04T04:11:13.966Z,20.8
2018-12-04T04:12:04.037Z,20.8
2018-12-04T04:12:53.194Z,20.8
2018-12-04T04:13:43.807Z,20.8
2018-12-04T04:14:33.830Z,20.8
2018-12-04T04:15:24.265Z,20.8
2018-12-04T04:16:13.434Z,20.8
2018-12-04T04:17:04.569Z,20.8
2018-12-04T04:17:54.672Z,20.8
2018-12-04T04:18:44.432Z,20.8
2018-12-04T04:19:33.917Z,20.8
2018-12-04T04:20:24.350Z,20.8
2018-12-04T04:21:14.617Z,20.8
2018-12-04T04:22:04.626Z,20.8
2018-12-04T04:22:55.597Z,20.8
2018-12-04T04:23:44.779Z,20.8
2018-12-04T04:24:34.255Z,20.8
2018-12-04T04:25:26.387Z,20.8
2018-12-04T04:26:15.257Z,20.8
2018-12-04T04:27:04.774Z,20.8
2018-12-04T04:27:55.319Z,20.8
2018-12-04T04:28:44.829Z,20.8
2018-12-04T04:29:34.592Z,20.8
2018-12-04T04:30:24.731Z,20.8
2018-12-04T04:31:14.711Z,20.8
2018-12-04T04:32:04.799Z,20.7
2018-12-04T04:32:55.394Z,20.7
2018-12-04T04:33:44.366Z,20.7
2018-12-04T04:34:34.746Z,20.7
2018-12-04T04:35:25.231Z,20.7
2018-12-04T04:36:15.336Z,20.7
2018-12-04T04:37:06.226Z,20.7
2018-12-04T04:54:25.786Z,20.5
2018-12-04T04:55:15.220Z,20.5
2018-12-04T04:56:05.624Z,20.6
2018-12-04T04:56:55.707Z,20.6
2018-12-04T04:57:45.191Z,20.6
2018-12-04T04:58:36.323Z,20.5
2018-12-04T04:59:26.372Z,20.5
2018-12-04T05:00:16.452Z,20.5
2018-12-04T05:01:05.467Z,20.5
2018-12-04T05:01:56.285Z,20.5
2018-12-04T05:02:45.728Z,20.5
2018-12-04T05:03:36.324Z,20.5
2018-12-04T05:04:26.617Z,20.5
2018-12-04T05:05:15.859Z,20.4
2018-12-04T05:06:05.440Z,24.3
2018-12-04T05:06:56.348Z,29
2018-12-04T05:07:44.963Z,32.1
2018-12-04T05:08:37.025Z,34.1
2018-12-04T05:09:26.746Z,35.6
2018-12-04T05:10:17.417Z,36.6
2018-12-04T05:11:06.607Z,37.2
2018-12-04T05:11:56.989Z,37.4
2018-12-04T05:12:46.688Z,37.4
2018-12-04T05:13:36.777Z,36.6
2018-12-04T05:14:26.563Z,36.2
2018-12-04T05:15:16.067Z,35.9
2018-12-04T05:16:06.797Z,35.6
2018-12-04T05:16:56.845Z,35.2
2018-12-04T05:17:47.079Z,34.9
2018-12-04T05:18:36.885Z,34.4
2018-12-04T05:19:27.152Z,33.6
2018-12-04T05:20:16.966Z,32.3
2018-12-04T05:21:07.266Z,33.5
2018-12-04T05:21:57.309Z,36
2018-12-04T05:22:47.944Z,37.4
2018-12-04T05:23:37.709Z,38.3
2018-12-04T05:24:27.481Z,38.9
2018-12-04T05:25:16.959Z,39.3
2018-12-04T05:26:06.812Z,39.4
2018-12-04T05:26:57.658Z,39.3
2018-12-04T05:27:47.730Z,38.6
2018-12-04T05:28:37.548Z,37.6
2018-12-04T05:29:28.453Z,37
2018-12-04T05:30:17.679Z,36.6
2018-12-04T05:31:08.500Z,36.1
2018-12-04T05:31:58.314Z,35.7
2018-12-04T05:32:47.748Z,35.3
2018-12-04T05:33:38.155Z,36.2
2018-12-04T05:34:28.233Z,37.8
2018-12-04T05:35:17.958Z,38.6
2018-12-04T05:36:07.798Z,39.1
2018-12-04T05:36:58.710Z,39.4
2018-12-04T05:37:47.620Z,39.5
2018-12-04T05:38:38.275Z,39.3
2018-12-04T05:39:28.045Z,38
2018-12-04T05:40:18.520Z,37.2
2018-12-04T05:41:08.660Z,36.6
2018-12-04T05:41:57.832Z,36.3
2018-12-04T05:42:48.250Z,35.9
2018-12-04T05:43:37.992Z,37.3
2018-12-04T05:44:29.117Z,38.4
2018-12-04T05:45:18.707Z,38.8
2018-12-04T05:46:08.715Z,39.1
2018-12-04T05:46:58.752Z,38.3
2018-12-04T05:47:48.835Z,37.2
2018-12-04T05:48:38.337Z,36.5
2018-12-04T05:49:29.047Z,37.3
2018-12-04T05:50:18.711Z,38.4
2018-12-04T05:51:09.386Z,38.9
2018-12-04T05:51:58.557Z,39.1
2018-12-04T05:52:49.170Z,39.1
2018-12-04T05:53:39.234Z,37.9
2018-12-04T05:54:29.001Z,37
2018-12-04T05:55:19.039Z,36.5
2018-12-04T05:56:10.224Z,37.6
2018-12-04T05:56:59.721Z,38.6
2018-12-04T05:57:49.477Z,38.9
2018-12-04T05:58:40.402Z,39.1
2018-12-04T05:59:29.872Z,38.9
2018-12-04T06:00:19.168Z,37.8
2018-12-04T06:01:10.313Z,36.9
2018-12-04T06:02:00.342Z,36.3
2018-12-04T06:02:49.017Z,37.5
2018-12-04T06:03:40.877Z,38.6
2018-12-04T06:04:29.456Z,39.1
2018-12-04T06:05:20.017Z,39.4
2018-12-04T06:06:10.916Z,39.5
2018-12-04T06:07:00.358Z,38.9
2018-12-04T06:07:49.600Z,37.8
2018-12-04T06:08:41.020Z,37
2018-12-04T06:09:29.698Z,36.9
2018-12-04T06:10:20.065Z,38.3
2018-12-04T06:11:10.651Z,39.1
2018-12-04T06:11:59.930Z,39.4
2018-12-04T06:12:49.933Z,39.6
2018-12-04T06:13:40.830Z,39.6
2018-12-04T06:14:30.320Z,38.3
2018-12-04T06:15:21.220Z,37.3
2018-12-04T06:16:10.708Z,36.8
2018-12-04T06:17:01.032Z,38.2
2018-12-04T06:17:50.791Z,39.2
2018-12-04T06:18:41.172Z,39.6
2018-12-04T06:19:31.474Z,39.9
2018-12-04T06:20:21.772Z,39.9
2018-12-04T06:21:11.053Z,40
2018-12-04T06:22:01.405Z,39.3
2018-12-04T06:22:50.597Z,38.1
2018-12-04T06:23:41.266Z,37.3
2018-12-04T06:24:30.989Z,37.5
2018-12-04T06:25:21.487Z,38.8
2018-12-04T06:26:11.746Z,39.6
2018-12-04T06:27:01.524Z,39.8
2018-12-04T06:27:52.106Z,40.1
2018-12-04T06:28:41.374Z,40.1
2018-12-04T06:29:31.923Z,40.1
2018-12-04T06:30:21.704Z,38.8
2018-12-04T06:31:11.688Z,37.8
2018-12-04T06:32:02.598Z,37.4
2018-12-04T06:32:51.909Z,38.8
2018-12-04T06:33:42.468Z,39.5
2018-12-04T06:34:31.966Z,39.9
2018-12-04T06:35:23.491Z,40.1
2018-12-04T06:36:12.623Z,40.1
2018-12-04T06:37:01.538Z,39.6
2018-12-04T06:37:52.509Z,38.4
2018-12-04T06:38:41.686Z,37.6
2018-12-04T06:39:32.405Z,37
2018-12-04T06:40:22.916Z,36.6
2018-12-04T06:41:12.700Z,37.9
2018-12-04T06:42:01.684Z,38.8
2018-12-04T06:42:52.810Z,39.3
2018-12-04T06:43:42.624Z,39.5
2018-12-04T06:44:33.451Z,38.5
2018-12-04T06:45:23.015Z,37.5
2018-12-04T06:46:12.573Z,36.8
2018-12-04T06:47:03.410Z,38
2018-12-04T06:47:53.725Z,39
2018-12-04T06:48:43.470Z,39.4
2018-12-04T06:49:33.594Z,39.7
2018-12-04T06:50:23.365Z,39.6
2018-12-04T06:51:13.642Z,38.3
2018-12-04T06:52:03.144Z,37.4
2018-12-04T06:52:53.214Z,36.9
2018-12-04T06:53:43.889Z,38.4
2018-12-04T06:54:33.345Z,39.4
2018-12-04T06:55:22.918Z,39.9
2018-12-04T06:56:13.772Z,40.1
2018-12-04T06:57:02.632Z,40.3
2018-12-04T06:57:53.547Z,40.3
2018-12-04T06:58:44.482Z,40.2
2018-12-04T06:59:32.892Z,40.1
2018-12-04T07:00:23.964Z,38.8
2018-12-04T07:01:13.746Z,37.7
2018-12-04T07:02:04.696Z,37.1
2018-12-04T07:02:52.964Z,38.3
2018-12-04T07:03:43.295Z,39.3
2018-12-04T07:04:34.624Z,39.8
2018-12-04T07:05:24.062Z,40.1
2018-12-04T07:06:15.007Z,40.2
2018-12-04T07:07:04.795Z,40.2
2018-12-04T07:07:54.251Z,40.1
2018-12-04T07:08:45.844Z,38.7
2018-12-04T07:09:33.571Z,37.8
2018-12-04T07:10:24.426Z,37.6
2018-12-04T07:11:14.746Z,38.9
2018-12-04T07:12:10.474Z,39.6
2018-12-04T07:12:54.061Z,40
2018-12-04T07:13:44.451Z,40.2
2018-12-04T07:14:35.466Z,40.3
2018-12-04T07:15:25.483Z,40.1
2018-12-04T07:16:13.978Z,38.7
2018-12-04T07:17:05.426Z,37.8
2018-12-04T07:17:54.350Z,37.7
2018-12-04T07:18:44.943Z,39
2018-12-04T07:19:35.063Z,39.7
2018-12-04T07:20:25.396Z,40.1
2018-12-04T07:21:15.933Z,40.3
2018-12-04T07:22:07.278Z,40.4
2018-12-04T07:22:55.323Z,40.4
2018-12-04T07:23:45.934Z,40.3
2018-12-04T07:24:36.508Z,39.8
2018-12-04T07:25:25.477Z,38.4
2018-12-04T07:26:15.256Z,37.6
2018-12-04T07:27:05.879Z,38.4
2018-12-04T07:27:55.342Z,39.5
2018-12-04T07:28:45.490Z,40.1
2018-12-04T07:29:35.093Z,40.4
2018-12-04T07:30:25.880Z,40.5
2018-12-04T07:31:15.089Z,40.6
2018-12-04T07:32:06.179Z,40.6
2018-12-04T07:32:56.252Z,40.5
2018-12-04T07:33:46.333Z,40.4
2018-12-04T07:34:36.280Z,39.4
2018-12-04T07:35:26.520Z,38.3
2018-12-04T07:36:16.524Z,37.6
2018-12-04T07:37:06.375Z,38.7
2018-12-04T07:37:55.510Z,39.7
2018-12-04T07:38:46.942Z,40.2
2018-12-04T07:39:36.739Z,40.6
2018-12-04T07:40:26.763Z,40.7
2018-12-04T07:41:16.652Z,40.8
2018-12-04T07:42:06.665Z,40.6
2018-12-04T07:42:55.857Z,40.4
2018-12-04T07:43:46.526Z,39
2018-12-04T07:44:36.294Z,38
2018-12-04T07:45:27.244Z,37.7
2018-12-04T07:46:16.750Z,39.1
2018-12-04T07:47:07.023Z,39.9
2018-12-04T07:47:56.772Z,40.3
2018-12-04T07:48:46.517Z,40.6
2018-12-04T07:49:37.144Z,40.6
2018-12-04T07:50:27.311Z,40.8
2018-12-04T07:51:16.946Z,40.8
2018-12-04T07:52:07.014Z,40.7
2018-12-04T07:52:57.418Z,40.6
2018-12-04T07:53:47.096Z,40.6
2018-12-04T07:54:37.476Z,40.4
2018-12-04T07:55:27.825Z,39.1
2018-12-04T07:56:17.356Z,38.1
2018-12-04T07:57:07.689Z,39
2018-12-04T07:57:58.068Z,39.9
2018-12-04T07:58:47.181Z,40.4
2018-12-04T07:59:37.026Z,40.8
2018-12-04T08:00:27.586Z,40.9
2018-12-04T08:01:18.388Z,41
2018-12-04T08:02:08.298Z,41
2018-12-04T08:02:58.638Z,40.9
2018-12-04T08:03:48.078Z,40.9
2018-12-04T08:04:37.838Z,40.7
2018-12-04T08:05:28.755Z,40.6
2018-12-04T08:06:18.043Z,40.6
2018-12-04T08:07:08.630Z,40.7
2018-12-04T08:07:58.971Z,40.6
2018-12-04T08:08:48.776Z,40.6
2018-12-04T08:09:38.458Z,40.6
2018-12-04T08:10:28.568Z,40.6
2018-12-04T08:11:18.627Z,40.7
2018-12-04T08:12:07.946Z,40.7
2018-12-04T08:12:58.447Z,40.8
2018-12-04T08:13:49.322Z,40.8
2018-12-04T08:14:38.794Z,40.8
2018-12-04T08:15:28.847Z,40.9
2018-12-04T08:16:19.817Z,40.9
2018-12-04T08:17:09.257Z,40.9
2018-12-04T08:17:59.042Z,40.9
2018-12-04T08:18:48.590Z,40.9
2018-12-04T08:19:39.693Z,40.9
2018-12-04T08:20:29.152Z,40.9
2018-12-04T08:21:18.719Z,40.9
2018-12-04T08:22:09.293Z,40.9
2018-12-04T08:23:00.229Z,40.9
2018-12-04T08:23:49.682Z,40.9
2018-12-04T08:24:40.052Z,40.9
2018-12-04T08:25:29.253Z,40.3
2018-12-04T08:26:20.179Z,39.1
2018-12-04T08:27:09.679Z,38.9
2018-12-04T08:27:59.164Z,39.9
2018-12-04T08:28:48.926Z,40.5
2018-12-04T08:29:39.826Z,40.9
2018-12-04T08:30:30.158Z,41.1
2018-12-04T08:31:21.580Z,41.1
2018-12-04T08:32:11.468Z,41.3
2018-12-04T08:33:00.838Z,41.2
2018-12-04T08:33:50.358Z,41.2
2018-12-04T08:34:40.495Z,41.2
2018-12-04T08:35:30.817Z,41.2
2018-12-04T08:36:20.823Z,41.2
2018-12-04T08:37:10.332Z,41.2
2018-12-04T08:38:00.133Z,41.1
2018-12-04T08:38:51.301Z,41.1
2018-12-04T08:39:40.225Z,41.1
2018-12-04T08:40:30.900Z,41.1
2018-12-04T08:41:20.085Z,41.1
2018-12-04T08:42:10.695Z,41.1
2018-12-04T08:43:00.972Z,41.1
2018-12-04T08:43:51.557Z,41.1
2018-12-04T08:44:41.446Z,41
2018-12-04T08:45:30.887Z,41
2018-12-04T08:46:21.505Z,41
2018-12-04T08:47:11.880Z,41.1
2018-12-04T08:48:00.767Z,41.2
2018-12-04T08:48:51.194Z,41.1
2018-12-04T08:49:41.429Z,41.1
2018-12-04T08:50:30.117Z,41.1
2018-12-04T08:51:21.887Z,41.1
2018-12-04T08:52:11.855Z,41.1
2018-12-04T08:53:01.954Z,41.1
2018-12-04T09:08:51.673Z,41.6
2018-12-04T09:09:39.816Z,41.6
2018-12-04T09:10:30.761Z,41.6
2018-12-04T09:11:19.868Z,41.6
2018-12-04T09:12:09.951Z,41.6
2018-12-04T09:12:59.728Z,41.6
2018-12-04T09:13:50.946Z,41.6
2018-12-04T09:14:46.458Z,41.5
2018-12-04T09:15:30.156Z,41.6
2018-12-04T09:16:25.838Z,41.6
2018-12-04T09:17:10.019Z,41.6
2018-12-04T09:18:00.605Z,41.6
2018-12-04T09:18:51.521Z,41.7
2018-12-04T09:19:42.114Z,41.7
2018-12-04T09:20:32.684Z,41.7
2018-12-04T09:21:21.380Z,41.8
2018-12-04T09:22:12.790Z,41.8
2018-12-04T09:23:02.193Z,41.7
2018-12-04T09:23:52.475Z,41.6
2018-12-04T09:24:41.965Z,41.6
2018-12-04T09:25:32.561Z,41.6
2018-12-04T09:26:22.240Z,41.6
2018-12-04T09:27:14.185Z,41.6
2018-12-04T09:28:04.206Z,41.6
2018-12-04T09:28:51.928Z,41.6
2018-12-04T09:29:43.204Z,41.6
2018-12-04T09:30:31.317Z,41.5
2018-12-04T09:31:20.720Z,41.6
2018-12-04T09:32:10.876Z,41.6
2018-12-04T09:33:02.222Z,41.6
2018-12-04T09:33:52.162Z,41.6
2018-12-04T09:34:41.219Z,41.4
2018-12-04T09:35:31.103Z,41.6
2018-12-04T09:36:20.554Z,41.6
2018-12-04T09:37:11.544Z,41.6
2018-12-04T09:38:01.461Z,41.6
2018-12-04T09:38:51.517Z,41.6
2018-12-04T09:39:41.857Z,41.6
2018-12-04T09:40:32.734Z,41.6
2018-12-04T09:41:21.659Z,41.7
2018-12-04T09:42:12.828Z,41.7
2018-12-04T09:43:07.844Z,41.6
2018-12-04T09:43:52.936Z,41.6
2018-12-04T09:44:43.003Z,41.6
2018-12-04T09:45:33.122Z,41.7
2018-12-04T09:46:21.494Z,41.7
2018-12-04T09:47:13.119Z,41.7
2018-12-04T09:48:02.919Z,41.7
2018-12-04T09:48:52.713Z,41.6
2018-12-04T09:49:43.613Z,41.6
2018-12-04T09:50:32.672Z,41.5
2018-12-04T09:51:23.656Z,41.4
2018-12-04T09:52:12.911Z,41.3
2018-12-04T09:53:02.443Z,41.1
2018-12-04T09:53:58.088Z,40.9
2018-12-04T09:54:42.508Z,40.3
2018-12-04T09:55:33.120Z,39.2
2018-12-04T09:56:22.973Z,38.4
2018-12-04T09:57:13.258Z,37.7
2018-12-04T09:58:03.923Z,37.3
2018-12-04T09:58:53.386Z,36.9
2018-12-04T09:59:46.724Z,36.6
2018-12-04T10:00:33.562Z,36.3
2018-12-04T10:01:22.745Z,36.1
2018-12-04T10:02:12.763Z,35.7
2018-12-04T10:03:04.220Z,35.3
2018-12-04T10:03:53.968Z,35.2
2018-12-04T10:04:45.858Z,37.1
2018-12-04T10:05:35.674Z,38.2
2018-12-04T10:06:24.462Z,37.7
2018-12-04T10:07:13.505Z,37.1
2018-12-04T10:08:04.598Z,36.6
2018-12-04T10:08:54.622Z,36.3
2018-12-04T10:09:44.684Z,35.9
2018-12-04T10:10:34.189Z,35.4
2018-12-04T10:11:24.495Z,34.6
2018-12-04T10:12:14.844Z,33.8
2018-12-04T10:13:04.174Z,33.1
2018-12-04T10:13:54.706Z,32.4
2018-12-04T10:14:45.002Z,31.8
2018-12-04T10:15:34.836Z,31.3
2018-12-04T10:16:24.046Z,30.9
2018-12-04T10:17:14.402Z,30.6
2018-12-04T10:18:04.789Z,30.3
2018-12-04T10:18:54.004Z,30.1
2018-12-04T10:19:45.392Z,29.9
2018-12-04T10:20:35.173Z,29.8
2018-12-04T10:21:25.179Z,29.7
2018-12-04T10:22:16.193Z,29.6
2018-12-04T10:23:05.361Z,29.4
2018-12-04T10:23:55.081Z,29.3
2018-12-04T10:24:45.159Z,29.3
2018-12-04T10:25:35.710Z,29.2
2018-12-04T10:26:24.468Z,29.1
2018-12-04T10:27:16.207Z,29
2018-12-04T10:28:05.108Z,28.9
2018-12-04T10:28:55.788Z,28.9
2018-12-04T10:29:45.513Z,28.8
2018-12-04T10:30:35.278Z,28.8
2018-12-04T10:31:25.604Z,28.7
2018-12-04T10:32:15.915Z,28.6
2018-12-04T10:33:05.798Z,28.6
2018-12-04T10:33:55.533Z,28.5
2018-12-04T10:34:45.860Z,28.4
2018-12-04T10:35:36.443Z,28.4
2018-12-04T10:36:25.727Z,28.3
2018-12-04T10:37:16.474Z,28.3
2018-12-04T10:38:07.188Z,28.3
2018-12-04T10:38:56.055Z,28.2
2018-12-04T10:39:46.224Z,28.1
2018-12-04T10:40:35.992Z,28.1
2018-12-04T10:41:26.804Z,28.1
2018-12-04T10:42:16.134Z,28
2018-12-04T10:43:05.326Z,27.9
2018-12-04T10:43:56.729Z,27.9
2018-12-04T10:44:46.817Z,27.9
2018-12-04T10:46:27.536Z,27.8
2018-12-04T10:47:16.466Z,27.7
2018-12-04T10:48:07.366Z,27.6
2018-12-04T10:48:56.307Z,27.6
2018-12-04T10:49:47.454Z,27.6
2018-12-04T10:50:36.654Z,27.5
2018-12-04T10:51:28.152Z,27.5
2018-12-04T10:52:17.314Z,27.4
2018-12-04T10:53:07.681Z,27.4
2018-12-04T10:53:57.416Z,27.4
2018-12-04T10:54:46.633Z,27.3
2018-12-04T10:55:37.021Z,27.3
2018-12-04T10:56:28.373Z,27.3
2018-12-04T10:57:17.948Z,27.3
2018-12-04T10:58:07.458Z,27.3
2018-12-04T10:58:57.091Z,27.2
2018-12-04T10:59:47.241Z,27.1
2018-12-04T11:00:37.308Z,27.1
2018-12-04T11:01:28.393Z,27.1
2018-12-04T11:02:17.715Z,27.1
2018-12-04T11:03:06.902Z,27
2018-12-04T11:03:58.161Z,27
2018-12-04T11:04:48.780Z,26.9
2018-12-04T11:05:38.825Z,26.9
2018-12-04T11:06:28.245Z,26.9
2018-12-04T11:07:18.046Z,26.8
2018-12-04T11:08:08.120Z,26.8
2018-12-04T11:08:58.155Z,26.7
2018-12-04T11:09:48.476Z,26.7
2018-12-04T11:10:37.704Z,26.6
2018-12-04T11:11:28.015Z,26.6
2018-12-04T11:12:20.420Z,26.6
2018-12-04T11:13:09.281Z,26.5
2018-12-04T11:13:57.110Z,26.4
2018-12-04T11:14:49.142Z,26.4
2018-12-04T11:15:39.195Z,26.3
2018-12-04T11:16:29.202Z,26.3
2018-12-04T11:17:18.460Z,26.3
2018-12-04T11:18:09.579Z,26.3
2018-12-04T11:18:56.992Z,26.2
2018-12-04T11:19:48.729Z,26.1
2018-12-04T11:20:38.790Z,26.1
2018-12-04T11:21:29.547Z,26.1
2018-12-04T11:22:19.640Z,26
2018-12-04T11:23:08.827Z,25.9
2018-12-04T11:23:59.040Z,25.9
2018-12-04T11:24:48.457Z,25.9
2018-12-04T11:25:38.494Z,25.8
2018-12-04T11:26:29.364Z,25.8
2018-12-04T11:27:19.696Z,25.8
2018-12-04T11:28:09.790Z,25.7
2018-12-04T11:28:59.729Z,25.7
2018-12-04T11:29:48.509Z,25.6
2018-12-04T11:30:39.149Z,25.6
2018-12-04T11:31:30.209Z,25.5
2018-12-04T11:32:19.866Z,25.5
2018-12-04T11:33:09.544Z,25.4
2018-12-04T11:33:59.406Z,25.4
2018-12-04T11:34:49.586Z,25.3
2018-12-04T11:35:38.896Z,25.3
2018-12-04T11:36:28.712Z,25.3
2018-12-04T11:37:20.711Z,25.2
2018-12-04T11:38:09.296Z,25.2
2018-12-04T11:39:00.998Z,25.1
2018-12-04T11:39:50.276Z,25.1
2018-12-04T11:40:40.834Z,25
2018-12-04T11:41:31.119Z,25
2018-12-04T11:42:21.043Z,24.9
2018-12-04T11:43:09.706Z,24.9
2018-12-04T11:43:59.178Z,24.9
2018-12-04T11:44:50.916Z,24.9
2018-12-04T11:45:40.633Z,24.8
2018-12-04T11:46:29.342Z,24.8
2018-12-04T11:47:21.913Z,24.7
2018-12-04T11:48:10.268Z,24.7
2018-12-04T11:48:59.518Z,24.6
2018-12-04T11:49:51.490Z,24.6
2018-12-04T11:50:40.695Z,24.6
2018-12-04T11:51:30.721Z,24.6
2018-12-04T11:52:20.615Z,24.5
2018-12-04T11:53:10.648Z,24.4
2018-12-04T11:54:01.453Z,24.4
2018-12-04T11:54:50.481Z,24.4
2018-12-04T11:55:43.199Z,24.3
2018-12-04T11:56:31.568Z,24.3
2018-12-04T11:57:21.685Z,24.3
2018-12-04T11:58:11.421Z,24.2
2018-12-04T11:59:01.790Z,24.2
2018-12-04T11:59:51.551Z,24.2
2018-12-04T12:00:41.640Z,24.1
2018-12-04T12:01:31.757Z,24.1
2018-12-04T12:02:22.295Z,24.1
2018-12-04T12:03:11.807Z,24.1
2018-12-04T12:04:01.574Z,24
2018-12-04T12:04:51.662Z,23.9
2018-12-04T12:05:43.020Z,23.9
2018-12-04T12:06:32.339Z,23.9
2018-12-04T12:07:27.849Z,23.9
2018-12-04T12:08:12.687Z,23.9
2018-12-04T12:09:01.957Z,23.8
2018-12-04T12:09:52.777Z,23.8
2018-12-04T12:10:43.207Z,23.8
2018-12-04T12:11:31.867Z,23.8